Portada
METAR-TAF:

METAR-TAF

Aeroports :

Salalah, Oman

latitud: 17-02N, longitud: 054-05E, altitud: 20 m

Observació

L'informe es va fer fa 1 hora i 2 minuts, a les 23:50 UTC
Vent 4 kt del Oest/Nord-Oest
Temperatura 24°C
Humitat 74%
Pressió 1012 hPa
Visibilitat 10 km o més
sense núvols per sota de 1500 mi sense presència de cumulonimbus.

METAR: OOSA 192350Z 30004KT CAVOK 24/19 Q1012 NOSIG

Hora: 04:52 (00:52 UTC)

Pronòstic

L'informe es va fer fa 1 hora i 12 minuts, a les 23:40 UTC
Pronòstic vàlid del 20 a les 00 UTC al 21 a les 06 UTC
Vent 6 kt del Nord
Visibilitat: 8000 m
Evolucionant progressivament
l' 20 a les 06 UTC al 20 a les 08 UTC
Vent 8 kt del Sud/Sud-Est
Evolucionant progressivament
l' 20 a les 14 UTC al 20 a les 16 UTC
Vent 3 kt amb direcció variable

TAF: OOSA 192340Z 2000/2106 36006KT 8000 NSC BECMG 2006/2008 16008KT BECMG 2014/2016 VRB03KT

Observacions i pronòstics meteorològics de més de 4000 aeroports (METAR i TAF).

Les estacions disponibles són els punts grocs i vermells al mapa.

Posi el ratolí al punt desitjat per veure el nom de l'estació.

Feu clic per veure les observacions i els pronòstics meteorològics.

Per canviar el mapa: feu clic els botons verds amb una creu de color negre per apropar; al botó verd amb un guió per allunyar la imatge; o en les fletxes verdes per a mapes adjacents.


METAR-TAF: